Terminal Aerodrome Forecast
Issued by NWS

Home | Current Version | Previous Version | Graphics & Text | Print | Product List | Glossary On
Versions: 1 2 3 4 5 6 7 8 9 10 11 12 13 14
480
FTUS43 KGRB 211129
TAFCWA
TAF
KCWA 211129Z 2112/2212 24006KT P6SM SKC
     FM211300 28007KT P6SM FEW070 BKN200
     FM211600 28011KT P6SM SCT070 BKN200
     FM211900 30009KT P6SM -SHRA BKN070 BKN120
     FM212200 33006KT P6SM SCT100
     FM220100 02005KT P6SM SKC=

USA.gov is the U.S. government's official web portal to all federal, state and local government web resources and services.